El Paso, Texas
Current Conditions -  °F | °C
As of 9:51 AM on Thursday 23 Oct 2014 (Local Time) from KELP Reporting Station
Clear Clear  
Wind Chill: 66°   Ceiling: Unl
Heat Index: 66°   Visibility: 10mi
Dew Point: 54°   Wind: 0mph
Humidity: 65%   Direction: NA
Pressure: 30.22"   Gusts: NA
Location:  31.76°N, 106.48°W
Report Text: KELP 231551Z 00000KT 10SM CLR 19/12 A3022 RMK AO2 SLP180 T01890122
Loading
Personal Weather Stations






























Interactive Weather Map New forecast layout! Learn more

10-Day Weather Forecast

Advertisements
Track Severe Weather on mobile